Romang, Argentina
Current Conditions -  °F | °C
As of 3:00 PM on Sunday 23 Nov 2014 (Local Time) from SARE Reporting Station
Clear Clear  
Wind Chill: 86°   Ceiling: Unl
Heat Index: 86°   Visibility: 6mi
Dew Point: 55°   Wind: 3mph
Humidity: 35%   Direction: 70°ENE
Pressure: 29.83"   Gusts: NA
Location:  29.49°S, 59.75°W
Report Text: SARE 231800Z 07003KT CAVOK 30/13 Q1010
Loading
Personal Weather Stations






























Interactive Weather Map New forecast layout! Learn more

10-Day Weather Forecast

Advertisements
Track Severe Weather on mobile